sensor_id;sensor_type;location;lat;lon;timestamp;pressure;altitude;pressure_sealevel;temperature;humidity
65534;BME280;53640;55.838;37.184;2022-10-31T00:00:54;97433.09;;;-1.91;49.51
65534;BME280;53640;55.838;37.184;2022-10-31T00:03:21;97502.59;;;-1.44;49.95
65534;BME280;53640;55.838;37.184;2022-10-31T00:05:49;97481.22;;;-1.57;49.70
65534;BME280;53640;55.838;37.184;2022-10-31T00:08:17;97478.09;;;-1.46;49.65
65534;BME280;53640;55.838;37.184;2022-10-31T00:10:44;97473.31;;;-1.51;49.57
65534;BME280;53640;55.838;37.184;2022-10-31T00:13:14;97495.22;;;-1.27;49.14
65534;BME280;53640;55.838;37.184;2022-10-31T00:15:41;97425.41;;;-1.86;49.14
65534;BME280;53640;55.838;37.184;2022-10-31T00:18:08;97499.44;;;-1.33;49.40
65534;BME280;53640;55.838;37.184;2022-10-31T00:20:35;97475.28;;;-1.60;49.66
65534;BME280;53640;55.838;37.184;2022-10-31T00:23:05;97503.50;;;-1.37;49.67
65534;BME280;53640;55.838;37.184;2022-10-31T00:25:37;97468.84;;;-1.50;49.47
65534;BME280;53640;55.838;37.184;2022-10-31T00:28:05;97445.63;;;-1.63;49.39
65534;BME280;53640;55.838;37.184;2022-10-31T00:30:32;97457.72;;;-1.61;49.41
65534;BME280;53640;55.838;37.184;2022-10-31T00:33:00;97459.09;;;-1.65;49.63
65534;BME280;53640;55.838;37.184;2022-10-31T00:35:26;97437.81;;;-1.71;49.40
65534;BME280;53640;55.838;37.184;2022-10-31T00:37:53;97464.38;;;-1.50;48.96
65534;BME280;53640;55.838;37.184;2022-10-31T00:40:19;97488.81;;;-1.33;49.34
65534;BME280;53640;55.838;37.184;2022-10-31T00:42:46;97465.56;;;-1.52;49.23
65534;BME280;53640;55.838;37.184;2022-10-31T00:45:12;97443.50;;;-1.53;49.09
65534;BME280;53640;55.838;37.184;2022-10-31T00:47:40;97465.94;;;-1.55;48.81
65534;BME280;53640;55.838;37.184;2022-10-31T00:50:07;97450.94;;;-1.63;49.22
65534;BME280;53640;55.838;37.184;2022-10-31T00:52:34;97478.72;;;-1.44;49.34
65534;BME280;53640;55.838;37.184;2022-10-31T00:55:02;97447.94;;;-1.60;49.48
65534;BME280;53640;55.838;37.184;2022-10-31T00:57:29;97434.59;;;-1.67;49.64
65534;BME280;53640;55.838;37.184;2022-10-31T00:59:55;97419.56;;;-1.96;50.48
65534;BME280;53640;55.838;37.184;2022-10-31T01:02:21;97455.47;;;-1.78;50.57
65534;BME280;53640;55.838;37.184;2022-10-31T01:04:49;97408.91;;;-2.02;50.21
65534;BME280;53640;55.838;37.184;2022-10-31T01:07:15;97449.34;;;-1.79;50.48
65534;BME280;53640;55.838;37.184;2022-10-31T01:09:44;97466.78;;;-1.70;50.60
65534;BME280;53640;55.838;37.184;2022-10-31T01:12:10;97421.38;;;-1.96;50.82
65534;BME280;53640;55.838;37.184;2022-10-31T01:14:43;97432.28;;;-1.91;51.43
65534;BME280;53640;55.838;37.184;2022-10-31T01:17:11;97443.13;;;-1.86;51.77
65534;BME280;53640;55.838;37.184;2022-10-31T01:19:39;97417.13;;;-2.12;51.60
65534;BME280;53640;55.838;37.184;2022-10-31T01:22:06;97455.75;;;-1.88;52.05
65534;BME280;53640;55.838;37.184;2022-10-31T01:24:32;97419.31;;;-2.01;51.77
65534;BME280;53640;55.838;37.184;2022-10-31T01:27:02;97346.16;;;-2.46;52.03
65534;BME280;53640;55.838;37.184;2022-10-31T01:29:32;97307.19;;;-2.67;53.14
65534;BME280;53640;55.838;37.184;2022-10-31T01:31:59;97412.97;;;-2.00;53.50
65534;BME280;53640;55.838;37.184;2022-10-31T01:34:26;97505.84;;;-1.64;55.08
65534;BME280;53640;55.838;37.184;2022-10-31T01:36:52;97344.63;;;-2.55;55.10
65534;BME280;53640;55.838;37.184;2022-10-31T01:39:19;97332.22;;;-2.70;55.86
65534;BME280;53640;55.838;37.184;2022-10-31T01:41:48;97368.38;;;-2.62;57.36
65534;BME280;53640;55.838;37.184;2022-10-31T01:46:51;97369.19;;;-2.91;59.60
65534;BME280;53640;55.838;37.184;2022-10-31T01:49:49;97501.47;;;-2.16;60.93
65534;BME280;53640;55.838;37.184;2022-10-31T01:52:37;97494.34;;;-2.15;60.96
65534;BME280;53640;55.838;37.184;2022-10-31T01:57:35;97515.63;;;-2.23;61.87
65534;BME280;53640;55.838;37.184;2022-10-31T02:00:07;97366.50;;;-3.06;62.08
65534;BME280;53640;55.838;37.184;2022-10-31T02:02:40;97478.38;;;-2.37;61.91
65534;BME280;53640;55.838;37.184;2022-10-31T02:05:14;97451.91;;;-2.60;61.82
65534;BME280;53640;55.838;37.184;2022-10-31T02:07:50;97496.91;;;-2.22;62.20
65534;BME280;53640;55.838;37.184;2022-10-31T02:10:23;97396.38;;;-2.83;62.00
65534;BME280;53640;55.838;37.184;2022-10-31T02:12:55;97446.91;;;-2.54;62.46
65534;BME280;53640;55.838;37.184;2022-10-31T02:15:23;97344.31;;;-3.20;62.96
65534;BME280;53640;55.838;37.184;2022-10-31T02:17:49;97501.94;;;-2.27;62.98
65534;BME280;53640;55.838;37.184;2022-10-31T02:20:18;97445.53;;;-2.65;63.11
65534;BME280;53640;55.838;37.184;2022-10-31T02:23:18;97494.25;;;-2.22;63.13
65534;BME280;53640;55.838;37.184;2022-10-31T02:26:20;97350.06;;;-3.16;63.74
65534;BME280;53640;55.838;37.184;2022-10-31T02:29:21;97451.47;;;-2.63;63.85
65534;BME280;53640;55.838;37.184;2022-10-31T02:32:00;97493.53;;;-2.30;63.85
65534;BME280;53640;55.838;37.184;2022-10-31T02:34:56;97424.59;;;-2.75;63.94
65534;BME280;53640;55.838;37.184;2022-10-31T02:40:39;97342.28;;;-3.33;63.64
65534;BME280;53640;55.838;37.184;2022-10-31T02:52:21;97434.72;;;-2.78;64.20
65534;BME280;53640;55.838;37.184;2022-10-31T02:54:53;97378.00;;;-3.14;64.35
65534;BME280;53640;55.838;37.184;2022-10-31T02:57:25;97408.63;;;-2.96;64.50
65534;BME280;53640;55.838;37.184;2022-10-31T03:00:07;97447.59;;;-2.75;64.48
65534;BME280;53640;55.838;37.184;2022-10-31T03:03:09;97393.53;;;-3.11;64.69
65534;BME280;53640;55.838;37.184;2022-10-31T03:08:54;97447.34;;;-2.81;64.63
65534;BME280;53640;55.838;37.184;2022-10-31T03:11:30;97402.94;;;-3.08;64.45
65534;BME280;53640;55.838;37.184;2022-10-31T03:16:40;97504.09;;;-2.45;64.30
65534;BME280;53640;55.838;37.184;2022-10-31T03:22:07;97438.75;;;-2.83;64.34
65534;BME280;53640;55.838;37.184;2022-10-31T03:24:38;97414.84;;;-2.89;63.96
65534;BME280;53640;55.838;37.184;2022-10-31T03:27:08;97410.88;;;-2.93;63.81
65534;BME280;53640;55.838;37.184;2022-10-31T03:29:37;97364.84;;;-3.22;63.36
65534;BME280;53640;55.838;37.184;2022-10-31T03:32:27;97505.94;;;-2.31;63.16
65534;BME280;53640;55.838;37.184;2022-10-31T03:34:59;97449.81;;;-2.64;63.01
65534;BME280;53640;55.838;37.184;2022-10-31T03:37:33;97410.16;;;-2.87;63.02
65534;BME280;53640;55.838;37.184;2022-10-31T03:40:04;97447.38;;;-2.66;62.93
65534;BME280;53640;55.838;37.184;2022-10-31T03:42:38;97397.84;;;-2.95;62.57
65534;BME280;53640;55.838;37.184;2022-10-31T03:45:20;97412.81;;;-2.87;62.40
65534;BME280;53640;55.838;37.184;2022-10-31T03:47:51;97452.47;;;-2.64;62.29
65534;BME280;53640;55.838;37.184;2022-10-31T03:50:19;97425.41;;;-2.74;62.07
65534;BME280;53640;55.838;37.184;2022-10-31T03:52:57;97415.69;;;-2.74;62.20
65534;BME280;53640;55.838;37.184;2022-10-31T03:55:32;97426.25;;;-2.74;61.97
65534;BME280;53640;55.838;37.184;2022-10-31T03:58:17;97404.03;;;-3.02;62.09
65534;BME280;53640;55.838;37.184;2022-10-31T04:00:45;97425.69;;;-2.84;61.64
65534;BME280;53640;55.838;37.184;2022-10-31T04:03:22;97388.22;;;-3.11;61.82
65534;BME280;53640;55.838;37.184;2022-10-31T04:05:56;97513.53;;;-2.28;62.13
65534;BME280;53640;55.838;37.184;2022-10-31T04:08:32;97381.09;;;-3.10;62.07
65534;BME280;53640;55.838;37.184;2022-10-31T04:11:00;97351.78;;;-3.23;62.49
65534;BME280;53640;55.838;37.184;2022-10-31T04:13:32;97424.75;;;-2.91;62.91
65534;BME280;53640;55.838;37.184;2022-10-31T04:16:10;97519.75;;;-2.36;63.51
65534;BME280;53640;55.838;37.184;2022-10-31T04:18:40;97414.34;;;-3.08;63.58
65534;BME280;53640;55.838;37.184;2022-10-31T04:21:08;97428.50;;;-3.00;63.46
65534;BME280;53640;55.838;37.184;2022-10-31T04:23:38;97382.31;;;-3.36;64.20
65534;BME280;53640;55.838;37.184;2022-10-31T04:26:23;97449.59;;;-2.92;63.61
65534;BME280;53640;55.838;37.184;2022-10-31T04:28:51;97447.50;;;-2.97;63.65
65534;BME280;53640;55.838;37.184;2022-10-31T04:31:18;97470.78;;;-2.92;64.47
65534;BME280;53640;55.838;37.184;2022-10-31T04:33:47;97447.72;;;-3.07;64.33
65534;BME280;53640;55.838;37.184;2022-10-31T04:36:14;97448.75;;;-3.08;64.31
65534;BME280;53640;55.838;37.184;2022-10-31T04:38:42;97379.69;;;-3.59;64.21
65534;BME280;53640;55.838;37.184;2022-10-31T04:41:25;97540.25;;;-2.52;64.56
65534;BME280;53640;55.838;37.184;2022-10-31T04:44:00;97470.06;;;-3.09;65.24
65534;BME280;53640;55.838;37.184;2022-10-31T04:46:28;97544.56;;;-2.51;65.46
65534;BME280;53640;55.838;37.184;2022-10-31T04:48:58;97450.44;;;-3.15;65.47
65534;BME280;53640;55.838;37.184;2022-10-31T04:51:25;97477.13;;;-3.01;65.45
65534;BME280;53640;55.838;37.184;2022-10-31T04:53:52;97515.97;;;-2.79;65.51
65534;BME280;53640;55.838;37.184;2022-10-31T04:56:28;97426.13;;;-3.33;65.37
65534;BME280;53640;55.838;37.184;2022-10-31T04:59:00;97566.38;;;-2.49;65.28
65534;BME280;53640;55.838;37.184;2022-10-31T05:01:34;97584.81;;;-2.56;65.44
65534;BME280;53640;55.838;37.184;2022-10-31T05:04:01;97514.00;;;-3.00;65.68
65534;BME280;53640;55.838;37.184;2022-10-31T05:06:28;97498.06;;;-3.15;66.13
65534;BME280;53640;55.838;37.184;2022-10-31T05:08:55;97460.56;;;-3.41;66.27
65534;BME280;53640;55.838;37.184;2022-10-31T05:11:27;97479.97;;;-3.26;66.50
65534;BME280;53640;55.838;37.184;2022-10-31T05:13:57;97446.25;;;-3.55;66.74
65534;BME280;53640;55.838;37.184;2022-10-31T05:16:56;97515.81;;;-3.23;66.81
65534;BME280;53640;55.838;37.184;2022-10-31T05:19:55;97530.19;;;-3.18;66.96
65534;BME280;53640;55.838;37.184;2022-10-31T05:23:29;97624.84;;;-2.74;67.40
65534;BME280;53640;55.838;37.184;2022-10-31T05:26:59;97454.47;;;-3.73;67.50
65534;BME280;53640;55.838;37.184;2022-10-31T05:29:30;97519.81;;;-3.27;67.51
65534;BME280;53640;55.838;37.184;2022-10-31T05:34:56;97581.22;;;-2.86;67.27
65534;BME280;53640;55.838;37.184;2022-10-31T05:37:54;97527.75;;;-3.27;67.43
65534;BME280;53640;55.838;37.184;2022-10-31T05:40:30;97596.78;;;-2.83;67.05
65534;BME280;53640;55.838;37.184;2022-10-31T05:43:04;97580.59;;;-2.88;67.62
65534;BME280;53640;55.838;37.184;2022-10-31T05:45:31;97533.97;;;-3.20;67.58
65534;BME280;53640;55.838;37.184;2022-10-31T05:48:12;97525.22;;;-3.21;67.24
65534;BME280;53640;55.838;37.184;2022-10-31T05:51:01;97533.25;;;-3.06;67.16
65534;BME280;53640;55.838;37.184;2022-10-31T05:53:28;97616.13;;;-2.60;67.39
65534;BME280;53640;55.838;37.184;2022-10-31T05:55:57;97609.19;;;-2.61;67.20
65534;BME280;53640;55.838;37.184;2022-10-31T05:58:25;97582.78;;;-2.69;67.32
65534;BME280;53640;55.838;37.184;2022-10-31T06:01:05;97612.44;;;-2.50;67.05
65534;BME280;53640;55.838;37.184;2022-10-31T06:03:33;97549.53;;;-2.94;66.89
65534;BME280;53640;55.838;37.184;2022-10-31T06:06:03;97641.63;;;-2.36;66.88
65534;BME280;53640;55.838;37.184;2022-10-31T06:08:36;97528.06;;;-2.99;67.09
65534;BME280;53640;55.838;37.184;2022-10-31T06:11:27;97660.16;;;-2.13;66.65
65534;BME280;53640;55.838;37.184;2022-10-31T06:14:04;97626.94;;;-2.23;66.73
65534;BME280;53640;55.838;37.184;2022-10-31T06:17:03;97609.25;;;-2.46;66.54
65534;BME280;53640;55.838;37.184;2022-10-31T06:20:01;97692.03;;;-1.83;66.43
65534;BME280;53640;55.838;37.184;2022-10-31T06:22:30;97648.41;;;-2.18;66.23
65534;BME280;53640;55.838;37.184;2022-10-31T06:24:58;97612.31;;;-2.19;66.36
65534;BME280;53640;55.838;37.184;2022-10-31T06:27:30;97604.56;;;-2.21;66.24
65534;BME280;53640;55.838;37.184;2022-10-31T06:30:06;97757.72;;;-1.18;65.86
65534;BME280;53640;55.838;37.184;2022-10-31T06:32:36;97689.78;;;-1.56;65.69
65534;BME280;53640;55.838;37.184;2022-10-31T06:35:03;97698.38;;;-1.54;65.17
65534;BME280;53640;55.838;37.184;2022-10-31T06:37:29;97713.78;;;-1.35;65.15
65534;BME280;53640;55.838;37.184;2022-10-31T06:40:03;97726.50;;;-1.30;64.44
65534;BME280;53640;55.838;37.184;2022-10-31T06:42:35;97787.03;;;-0.96;64.81
65534;BME280;53640;55.838;37.184;2022-10-31T06:45:02;97725.69;;;-1.46;64.71
65534;BME280;53640;55.838;37.184;2022-10-31T06:47:53;97796.75;;;-1.03;65.29
65534;BME280;53640;55.838;37.184;2022-10-31T06:50:26;97714.28;;;-1.54;65.26
65534;BME280;53640;55.838;37.184;2022-10-31T06:52:58;97781.53;;;-1.10;65.18
65534;BME280;53640;55.838;37.184;2022-10-31T06:55:26;97758.47;;;-1.24;65.14
65534;BME280;53640;55.838;37.184;2022-10-31T06:57:55;97746.53;;;-1.13;65.24
65534;BME280;53640;55.838;37.184;2022-10-31T07:00:24;97694.09;;;-1.41;64.70
65534;BME280;53640;55.838;37.184;2022-10-31T07:03:05;97686.88;;;-1.32;64.24
65534;BME280;53640;55.838;37.184;2022-10-31T07:06:04;97776.97;;;-0.71;64.19
65534;BME280;53640;55.838;37.184;2022-10-31T07:08:32;97848.03;;;-0.29;63.90
65534;BME280;53640;55.838;37.184;2022-10-31T07:10:59;97868.53;;;-0.23;63.81
65534;BME280;53640;55.838;37.184;2022-10-31T07:13:29;97787.19;;;-0.68;63.96
65534;BME280;53640;55.838;37.184;2022-10-31T07:16:06;97757.00;;;-0.82;63.51
65534;BME280;53640;55.838;37.184;2022-10-31T07:18:39;97883.66;;;-0.08;63.72
65534;BME280;53640;55.838;37.184;2022-10-31T07:21:08;97814.59;;;-0.53;63.37
65534;BME280;53640;55.838;37.184;2022-10-31T07:23:35;97785.56;;;-0.69;63.30
65534;BME280;53640;55.838;37.184;2022-10-31T07:26:20;97814.97;;;-0.56;63.53
65534;BME280;53640;55.838;37.184;2022-10-31T07:28:50;97786.84;;;-0.80;62.53
65534;BME280;53640;55.838;37.184;2022-10-31T07:31:20;97775.03;;;-0.77;63.06
65534;BME280;53640;55.838;37.184;2022-10-31T07:33:50;97841.97;;;-0.38;63.19
65534;BME280;53640;55.838;37.184;2022-10-31T07:36:23;97846.19;;;-0.28;62.79
65534;BME280;53640;55.838;37.184;2022-10-31T07:38:54;97936.44;;;0.24;62.72
65534;BME280;53640;55.838;37.184;2022-10-31T07:41:21;97835.81;;;-0.38;62.65
65534;BME280;53640;55.838;37.184;2022-10-31T07:43:48;97883.97;;;-0.18;62.17
65534;BME280;53640;55.838;37.184;2022-10-31T07:46:16;97927.91;;;0.14;62.32
65534;BME280;53640;55.838;37.184;2022-10-31T07:49:02;97968.06;;;0.34;62.00
65534;BME280;53640;55.838;37.184;2022-10-31T07:51:57;97968.25;;;0.32;61.93
65534;BME280;53640;55.838;37.184;2022-10-31T07:54:49;97974.13;;;0.43;61.84
65534;BME280;53640;55.838;37.184;2022-10-31T07:57:21;97971.91;;;0.46;62.22
65534;BME280;53640;55.838;37.184;2022-10-31T07:59:48;97981.66;;;0.39;60.72
65534;BME280;53640;55.838;37.184;2022-10-31T08:02:17;97933.81;;;0.09;61.37
65534;BME280;53640;55.838;37.184;2022-10-31T08:04:47;97968.25;;;0.32;61.59
65534;BME280;53640;55.838;37.184;2022-10-31T08:07:36;97984.78;;;0.43;61.10
65534;BME280;53640;55.838;37.184;2022-10-31T08:10:05;97968.97;;;0.41;61.14
65534;BME280;53640;55.838;37.184;2022-10-31T08:12:33;97969.41;;;0.45;60.69
65534;BME280;53640;55.838;37.184;2022-10-31T08:15:00;97986.19;;;0.60;61.04
65534;BME280;53640;55.838;37.184;2022-10-31T08:17:29;97973.31;;;0.64;60.91
65534;BME280;53640;55.838;37.184;2022-10-31T08:19:58;97939.31;;;0.44;59.88
65534;BME280;53640;55.838;37.184;2022-10-31T08:22:34;97979.75;;;0.69;59.89
65534;BME280;53640;55.838;37.184;2022-10-31T08:25:02;97888.31;;;0.04;59.89
65534;BME280;53640;55.838;37.184;2022-10-31T08:27:30;97984.91;;;0.56;60.20
65534;BME280;53640;55.838;37.184;2022-10-31T08:30:01;97963.75;;;0.33;60.60
65534;BME280;53640;55.838;37.184;2022-10-31T08:32:30;97999.03;;;0.56;60.72
65534;BME280;53640;55.838;37.184;2022-10-31T08:35:32;97954.03;;;0.25;61.01
65534;BME280;53640;55.838;37.184;2022-10-31T08:38:20;97969.44;;;0.30;61.24
65534;BME280;53640;55.838;37.184;2022-10-31T08:40:49;97974.22;;;0.49;61.16
65534;BME280;53640;55.838;37.184;2022-10-31T08:43:20;97955.69;;;0.63;61.28
65534;BME280;53640;55.838;37.184;2022-10-31T08:45:51;97997.97;;;0.87;60.54
65534;BME280;53640;55.838;37.184;2022-10-31T08:48:28;98014.03;;;0.94;60.13
65534;BME280;53640;55.838;37.184;2022-10-31T08:50:57;98001.09;;;0.91;59.59
65534;BME280;53640;55.838;37.184;2022-10-31T08:53:30;98011.00;;;1.18;60.26
65534;BME280;53640;55.838;37.184;2022-10-31T08:56:17;97995.84;;;1.19;59.17
65534;BME280;53640;55.838;37.184;2022-10-31T08:58:46;98077.53;;;1.97;58.61
65534;BME280;53640;55.838;37.184;2022-10-31T09:01:17;97988.47;;;1.70;60.07
65534;BME280;53640;55.838;37.184;2022-10-31T09:03:44;98072.72;;;2.49;58.32
65534;BME280;53640;55.838;37.184;2022-10-31T09:06:10;98083.69;;;2.67;56.51
65534;BME280;53640;55.838;37.184;2022-10-31T09:08:37;98056.13;;;2.67;55.68
65534;BME280;53640;55.838;37.184;2022-10-31T09:11:04;97989.38;;;2.25;55.85
65534;BME280;53640;55.838;37.184;2022-10-31T09:13:52;98076.06;;;2.64;54.48
65534;BME280;53640;55.838;37.184;2022-10-31T09:16:47;98088.19;;;2.60;55.42
65534;BME280;53640;55.838;37.184;2022-10-31T09:19:20;98102.09;;;2.49;54.77
65534;BME280;53640;55.838;37.184;2022-10-31T09:21:51;98081.78;;;2.20;54.83
65534;BME280;53640;55.838;37.184;2022-10-31T09:24:17;98080.53;;;2.16;54.99
65534;BME280;53640;55.838;37.184;2022-10-31T09:26:44;98075.78;;;2.18;55.71
65534;BME280;53640;55.838;37.184;2022-10-31T09:29:19;98050.44;;;2.35;55.29
65534;BME280;53640;55.838;37.184;2022-10-31T09:31:52;98095.56;;;3.06;54.81
65534;BME280;53640;55.838;37.184;2022-10-31T09:34:28;98120.00;;;3.58;54.32
65534;BME280;53640;55.838;37.184;2022-10-31T09:37:14;98111.78;;;3.59;54.00
65534;BME280;53640;55.838;37.184;2022-10-31T09:39:40;98092.97;;;3.33;51.19
65534;BME280;53640;55.838;37.184;2022-10-31T09:45:31;98123.22;;;2.85;51.93
65534;BME280;53640;55.838;37.184;2022-10-31T09:48:14;98148.66;;;2.68;51.49
65534;BME280;53640;55.838;37.184;2022-10-31T09:51:23;98136.66;;;2.29;52.68
65534;BME280;53640;55.838;37.184;2022-10-31T09:54:06;98160.97;;;2.34;52.66
65534;BME280;53640;55.838;37.184;2022-10-31T09:56:34;98085.63;;;1.82;53.23
65534;BME280;53640;55.838;37.184;2022-10-31T09:59:03;98164.28;;;2.43;53.44
65534;BME280;53640;55.838;37.184;2022-10-31T10:01:46;98207.25;;;2.76;53.28
65534;BME280;53640;55.838;37.184;2022-10-31T10:04:37;98200.03;;;2.70;53.08
65534;BME280;53640;55.838;37.184;2022-10-31T10:10:37;98194.78;;;2.55;52.55
65534;BME280;53640;55.838;37.184;2022-10-31T10:17:11;98252.41;;;2.64;51.63
65534;BME280;53640;55.838;37.184;2022-10-31T10:24:56;98241.44;;;2.31;52.45
65534;BME280;53640;55.838;37.184;2022-10-31T10:30:04;98256.00;;;2.28;53.43
65534;BME280;53640;55.838;37.184;2022-10-31T10:32:46;98233.25;;;2.11;52.95
65534;BME280;53640;55.838;37.184;2022-10-31T10:37:45;98274.50;;;2.09;52.91
65534;BME280;53640;55.838;37.184;2022-10-31T10:40:39;98260.00;;;1.96;52.78
65534;BME280;53640;55.838;37.184;2022-10-31T10:43:35;98248.16;;;1.84;53.92
65534;BME280;53640;55.838;37.184;2022-10-31T10:57:27;98272.16;;;2.42;52.63
65534;BME280;53640;55.838;37.184;2022-10-31T11:00:00;98268.75;;;2.33;51.97
65534;BME280;53640;55.838;37.184;2022-10-31T11:02:32;98208.22;;;1.91;52.53
65534;BME280;53640;55.838;37.184;2022-10-31T11:05:00;98255.22;;;2.13;53.04
65534;BME280;53640;55.838;37.184;2022-10-31T11:07:39;98260.47;;;2.00;53.28
65534;BME280;53640;55.838;37.184;2022-10-31T11:10:11;98258.63;;;2.00;53.04
65534;BME280;53640;55.838;37.184;2022-10-31T11:12:41;98148.28;;;1.29;52.87
65534;BME280;53640;55.838;37.184;2022-10-31T11:15:24;98254.06;;;1.79;52.43
65534;BME280;53640;55.838;37.184;2022-10-31T11:18:20;98190.31;;;1.12;53.54
65534;BME280;53640;55.838;37.184;2022-10-31T11:20:53;98225.41;;;1.30;54.07
65534;BME280;53640;55.838;37.184;2022-10-31T11:23:22;98185.63;;;1.14;54.81
65534;BME280;53640;55.838;37.184;2022-10-31T11:25:57;98290.19;;;1.46;54.14
65534;BME280;53640;55.838;37.184;2022-10-31T11:28:24;98177.34;;;0.50;54.70
65534;BME280;53640;55.838;37.184;2022-10-31T11:30:56;98172.03;;;0.50;55.09
65534;BME280;53640;55.838;37.184;2022-10-31T11:33:34;98154.13;;;0.44;55.36
65534;BME280;53640;55.838;37.184;2022-10-31T11:36:13;98206.34;;;0.45;55.95
65534;BME280;53640;55.838;37.184;2022-10-31T11:38:42;98198.94;;;0.17;56.85
65534;BME280;53640;55.838;37.184;2022-10-31T11:41:32;98213.81;;;0.26;56.92
65534;BME280;53640;55.838;37.184;2022-10-31T11:44:02;98199.63;;;0.19;57.07
65534;BME280;53640;55.838;37.184;2022-10-31T11:46:45;98234.06;;;0.35;57.61
65534;BME280;53640;55.838;37.184;2022-10-31T11:49:19;98196.00;;;0.12;57.56
65534;BME280;53640;55.838;37.184;2022-10-31T11:51:53;98166.72;;;-0.26;57.38
65534;BME280;53640;55.838;37.184;2022-10-31T11:54:34;98203.34;;;0.10;57.68
65534;BME280;53640;55.838;37.184;2022-10-31T11:57:23;98249.50;;;0.55;57.50
65534;BME280;53640;55.838;37.184;2022-10-31T11:59:52;98241.84;;;0.37;57.57
65534;BME280;53640;55.838;37.184;2022-10-31T12:02:20;98277.31;;;0.52;57.11
65534;BME280;53640;55.838;37.184;2022-10-31T12:05:37;98251.66;;;0.36;57.44
65534;BME280;53640;55.838;37.184;2022-10-31T12:07:38;98272.63;;;0.40;58.06
65534;BME280;53640;55.838;37.184;2022-10-31T12:10:11;98243.13;;;0.41;57.59
65534;BME280;53640;55.838;37.184;2022-10-31T12:12:51;98246.63;;;0.27;58.37
65534;BME280;53640;55.838;37.184;2022-10-31T12:18:29;98291.47;;;0.53;57.80
65534;BME280;53640;55.838;37.184;2022-10-31T12:24:44;98204.53;;;-0.16;57.75
65534;BME280;53640;55.838;37.184;2022-10-31T12:30:13;98296.50;;;0.48;58.87
65534;BME280;53640;55.838;37.184;2022-10-31T12:32:47;98309.72;;;0.56;58.12
65534;BME280;53640;55.838;37.184;2022-10-31T12:41:14;98314.34;;;0.62;58.40
65534;BME280;53640;55.838;37.184;2022-10-31T12:46:30;98224.91;;;-0.08;57.89
65534;BME280;53640;55.838;37.184;2022-10-31T12:52:04;98304.31;;;0.49;57.44
65534;BME280;53640;55.838;37.184;2022-10-31T12:57:58;98306.44;;;0.54;57.66
65534;BME280;53640;55.838;37.184;2022-10-31T13:00:31;98305.56;;;0.39;57.16
65534;BME280;53640;55.838;37.184;2022-10-31T13:05:58;98257.72;;;-0.16;57.54
65534;BME280;53640;55.838;37.184;2022-10-31T13:08:33;98360.88;;;0.51;57.75
65534;BME280;53640;55.838;37.184;2022-10-31T13:13:53;98323.00;;;0.18;57.80
65534;BME280;53640;55.838;37.184;2022-10-31T13:16:25;98332.59;;;0.27;58.64
65534;BME280;53640;55.838;37.184;2022-10-31T13:19:16;98376.06;;;0.66;58.99
65534;BME280;53640;55.838;37.184;2022-10-31T13:21:55;98373.56;;;0.64;57.53
65534;BME280;53640;55.838;37.184;2022-10-31T13:24:33;98374.03;;;0.53;57.51
65534;BME280;53640;55.838;37.184;2022-10-31T13:27:10;98363.47;;;0.59;57.76
65534;BME280;53640;55.838;37.184;2022-10-31T13:29:44;98355.06;;;0.48;57.85
65534;BME280;53640;55.838;37.184;2022-10-31T13:32:15;98377.25;;;0.63;57.56
65534;BME280;53640;55.838;37.184;2022-10-31T13:34:47;98304.38;;;0.18;57.30
65534;BME280;53640;55.838;37.184;2022-10-31T13:40:45;98398.19;;;0.66;58.34
65534;BME280;53640;55.838;37.184;2022-10-31T13:43:26;98367.63;;;0.62;57.95
65534;BME280;53640;55.838;37.184;2022-10-31T13:45:56;98399.78;;;0.52;58.60
65534;BME280;53640;55.838;37.184;2022-10-31T13:50:59;98358.00;;;0.30;58.42
65534;BME280;53640;55.838;37.184;2022-10-31T13:56:33;98363.63;;;0.12;58.45
65534;BME280;53640;55.838;37.184;2022-10-31T14:01:28;98435.78;;;0.71;58.80
65534;BME280;53640;55.838;37.184;2022-10-31T14:04:04;98384.53;;;0.46;58.84
65534;BME280;53640;55.838;37.184;2022-10-31T14:09:29;98387.00;;;0.25;58.93
65534;BME280;53640;55.838;37.184;2022-10-31T14:12:00;98355.03;;;0.02;59.14
65534;BME280;53640;55.838;37.184;2022-10-31T14:14:32;98385.97;;;0.26;58.91
65534;BME280;53640;55.838;37.184;2022-10-31T14:17:01;98315.88;;;-0.13;58.80
65534;BME280;53640;55.838;37.184;2022-10-31T14:19:28;98378.81;;;0.26;60.34
65534;BME280;53640;55.838;37.184;2022-10-31T14:21:54;98381.16;;;0.29;59.36
65534;BME280;53640;55.838;37.184;2022-10-31T14:26:55;98360.66;;;0.38;58.98
65534;BME280;53640;55.838;37.184;2022-10-31T14:29:25;98314.53;;;-0.08;58.68
65534;BME280;53640;55.838;37.184;2022-10-31T14:32:03;98485.00;;;0.83;58.98
65534;BME280;53640;55.838;37.184;2022-10-31T14:34:56;98453.66;;;0.85;58.45
65534;BME280;53640;55.838;37.184;2022-10-31T14:42:59;98493.69;;;0.77;59.70
65534;BME280;53640;55.838;37.184;2022-10-31T14:51:22;98486.50;;;0.78;58.90
65534;BME280;53640;55.838;37.184;2022-10-31T14:53:56;98371.19;;;0.00;58.79
65534;BME280;53640;55.838;37.184;2022-10-31T14:56:28;98431.38;;;0.32;60.04
65534;BME280;53640;55.838;37.184;2022-10-31T14:59:07;98389.53;;;0.18;58.53
65534;BME280;53640;55.838;37.184;2022-10-31T15:01:36;98450.81;;;0.64;58.29
65534;BME280;53640;55.838;37.184;2022-10-31T15:04:09;98446.50;;;0.63;58.21
65534;BME280;53640;55.838;37.184;2022-10-31T15:06:40;98510.88;;;0.98;58.36
65534;BME280;53640;55.838;37.184;2022-10-31T15:09:30;98446.31;;;0.42;58.08
65534;BME280;53640;55.838;37.184;2022-10-31T15:12:23;98518.25;;;0.88;58.66
65534;BME280;53640;55.838;37.184;2022-10-31T15:14:50;98474.03;;;0.47;58.44
65534;BME280;53640;55.838;37.184;2022-10-31T15:17:17;98436.78;;;0.16;58.14
65534;BME280;53640;55.838;37.184;2022-10-31T15:19:45;98424.94;;;0.19;58.15
65534;BME280;53640;55.838;37.184;2022-10-31T15:22:23;98440.09;;;0.18;58.07
65534;BME280;53640;55.838;37.184;2022-10-31T15:24:50;98472.81;;;0.58;58.15
65534;BME280;53640;55.838;37.184;2022-10-31T15:27:23;98444.28;;;0.44;58.93
65534;BME280;53640;55.838;37.184;2022-10-31T15:29:55;98495.91;;;0.66;57.41
65534;BME280;53640;55.838;37.184;2022-10-31T15:32:28;98496.88;;;0.73;57.94